createdAt,value
2018-07-28T00:00:27.032Z,8.10
2018-07-28T00:05:23.728Z,8.30
2018-07-28T00:10:20.789Z,8.68
2018-07-28T00:15:17.505Z,8.57
2018-07-28T00:20:14.585Z,8.90
2018-07-28T00:25:11.916Z,9.10
2018-07-28T00:30:10.149Z,8.73
2018-07-28T00:35:07.933Z,8.73
2018-07-28T00:40:04.897Z,8.57
2018-07-28T00:45:02.108Z,8.87
2018-07-28T00:49:59.131Z,8.77
2018-07-28T00:54:55.905Z,8.87
2018-07-28T00:59:52.831Z,8.70
2018-07-28T01:04:49.810Z,9.30
2018-07-28T01:09:46.770Z,9.43
2018-07-28T01:14:43.515Z,9.27
2018-07-28T01:19:41.005Z,9.87
2018-07-28T01:24:37.858Z,9.97
2018-07-28T01:29:34.926Z,9.23
2018-07-28T01:34:31.753Z,9.50
2018-07-28T01:39:28.745Z,9.60
2018-07-28T01:44:25.522Z,10.20
2018-07-28T01:49:22.625Z,10.23
2018-07-28T01:54:19.273Z,9.83
2018-07-28T01:59:16.484Z,9.80
2018-07-28T02:04:13.276Z,10.30
2018-07-28T02:09:11.241Z,9.87
2018-07-28T02:14:08.267Z,10.13
2018-07-28T02:19:05.020Z,10.77
2018-07-28T02:24:02.723Z,10.00
2018-07-28T02:28:59.482Z,9.87
2018-07-28T02:33:56.656Z,11.10
2018-07-28T02:38:53.504Z,10.47
2018-07-28T02:43:50.485Z,10.00
2018-07-28T02:48:47.439Z,10.27
2018-07-28T02:53:44.983Z,10.23
2018-07-28T02:58:42.292Z,9.97
2018-07-28T03:03:39.517Z,11.63
2018-07-28T03:08:36.417Z,11.67
2018-07-28T03:13:33.160Z,10.57
2018-07-28T03:18:30.031Z,10.83
2018-07-28T03:23:26.805Z,10.90
2018-07-28T03:28:24.315Z,11.97
2018-07-28T03:33:21.033Z,11.30
2018-07-28T03:38:18.098Z,11.50
2018-07-28T03:43:15.035Z,12.90
2018-07-28T03:48:11.747Z,11.27
2018-07-28T03:53:08.681Z,11.00
2018-07-28T03:58:05.723Z,11.40
2018-07-28T04:03:02.501Z,11.93
2018-07-28T04:07:59.451Z,12.20
2018-07-28T04:12:56.196Z,12.20
2018-07-28T04:17:54.102Z,12.30
2018-07-28T04:22:51.347Z,12.60
2018-07-28T04:27:48.328Z,12.63
2018-07-28T04:32:46.003Z,11.67
2018-07-28T04:37:42.710Z,11.67
2018-07-28T04:42:40.522Z,12.63
2018-07-28T04:47:37.233Z,12.93
2018-07-28T04:52:34.475Z,12.40
2018-07-28T04:57:31.295Z,13.20
2018-07-28T05:02:28.691Z,13.33
2018-07-28T05:07:26.032Z,12.40
2018-07-28T05:12:23.005Z,12.20
2018-07-28T05:17:20.513Z,11.50
2018-07-28T05:22:17.284Z,12.23
2018-07-28T05:27:14.333Z,12.03
2018-07-28T05:32:11.084Z,12.20
2018-07-28T05:37:08.078Z,11.78
2018-07-28T05:42:04.805Z,11.10
2018-07-28T05:47:01.986Z,11.08
2018-07-28T05:51:58.746Z,11.68
2018-07-28T05:56:56.831Z,10.78
2018-07-28T06:01:53.563Z,10.82
2018-07-28T06:06:50.748Z,10.32
2018-07-28T06:11:47.481Z,10.35
2018-07-28T06:16:44.488Z,9.53
2018-07-28T06:21:41.232Z,10.00
2018-07-28T06:26:38.805Z,8.33
2018-07-28T06:31:35.600Z,8.73
2018-07-28T06:36:32.473Z,7.58
2018-07-28T06:41:29.217Z,7.42
2018-07-28T06:46:25.929Z,7.87
2018-07-28T06:51:22.663Z,7.45
2018-07-28T06:56:19.754Z,6.45
2018-07-28T07:01:17.118Z,7.47
2018-07-28T07:06:14.111Z,6.42
2018-07-28T07:11:10.846Z,7.05
2018-07-28T07:16:08.149Z,6.42
2018-07-28T07:21:04.934Z,6.37
2018-07-28T07:26:01.845Z,6.37
2018-07-28T07:30:58.604Z,6.42
2018-07-28T07:36:02.431Z,6.67
2018-07-28T07:40:59.233Z,6.50
2018-07-28T07:45:56.258Z,5.95
2018-07-28T07:50:53.026Z,5.97
2018-07-28T07:55:50.163Z,6.30
2018-07-28T08:00:46.901Z,6.58
2018-07-28T08:05:44.899Z,6.12
2018-07-28T08:10:41.671Z,5.75
2018-07-28T08:15:38.837Z,5.85
2018-07-28T08:20:35.553Z,5.80
2018-07-28T08:25:32.555Z,6.15
2018-07-28T08:30:29.280Z,5.90
2018-07-28T08:35:26.176Z,5.45
2018-07-28T08:40:24.938Z,5.42
2018-07-28T08:45:22.156Z,5.80
2018-07-28T08:50:19.081Z,5.58
2018-07-28T08:55:16.377Z,5.35
2018-07-28T09:00:13.072Z,4.72
2018-07-28T09:05:10.006Z,4.70
2018-07-28T09:10:06.753Z,4.53
2018-07-28T09:15:04.751Z,4.60
2018-07-28T09:20:02.747Z,4.70
2018-07-28T09:24:59.901Z,4.20
2018-07-28T09:29:56.637Z,5.30
2018-07-28T09:34:53.623Z,4.70
2018-07-28T09:39:50.359Z,4.65
2018-07-28T09:44:47.424Z,3.70
2018-07-28T09:49:44.195Z,4.08
2018-07-28T09:54:41.773Z,3.72
2018-07-28T09:59:38.742Z,3.58
2018-07-28T10:04:35.489Z,3.70
2018-07-28T10:09:32.320Z,3.70
2018-07-28T10:14:29.317Z,5.50
2018-07-28T10:19:26.062Z,5.00
2018-07-28T10:24:23.322Z,4.72
2018-07-28T10:29:21.487Z,4.15
2018-07-28T10:34:19.123Z,4.28
2018-07-28T10:39:16.293Z,4.53
2018-07-28T10:44:13.306Z,4.25
2018-07-28T10:49:10.328Z,5.05
2018-07-28T10:54:07.315Z,4.33
2018-07-28T10:59:04.637Z,4.42
2018-07-28T11:04:01.477Z,4.42
2018-07-28T11:08:58.486Z,3.75
2018-07-28T11:13:56.084Z,4.17
2018-07-28T11:18:53.647Z,4.03
2018-07-28T11:23:52.998Z,4.22
2018-07-28T11:28:51.231Z,4.12
2018-07-28T11:33:53.938Z,3.90
2018-07-28T11:38:56.916Z,4.12
2018-07-28T11:43:59.518Z,4.05
2018-07-28T11:48:56.224Z,4.60
2018-07-28T11:53:53.257Z,4.58
2018-07-28T11:58:50.289Z,4.30
2018-07-28T12:03:47.287Z,4.85
2018-07-28T12:08:44.098Z,7.70
2018-07-28T12:13:41.098Z,6.47
2018-07-28T12:18:38.460Z,5.35
2018-07-28T12:23:35.403Z,6.03
2018-07-28T12:28:32.141Z,4.97
2018-07-28T12:33:29.146Z,5.12
2018-07-28T12:38:25.886Z,7.67
2018-07-28T12:43:23.051Z,6.30
2018-07-28T12:48:19.723Z,4.37
2018-07-28T12:53:16.876Z,4.37
2018-07-28T12:58:13.663Z,4.42
2018-07-28T13:03:11.431Z,4.75
2018-07-28T13:08:08.579Z,5.35
2018-07-28T13:13:05.870Z,12.25
2018-07-28T13:18:02.834Z,6.35
2018-07-28T13:22:59.989Z,12.23
2018-07-28T13:27:56.740Z,7.87
2018-07-28T13:32:54.010Z,4.87
2018-07-28T13:37:50.752Z,7.47
2018-07-28T13:42:47.821Z,4.12
2018-07-28T13:47:44.648Z,5.12
2018-07-28T13:52:41.575Z,4.60
2018-07-28T13:57:38.697Z,5.40
2018-07-28T14:02:35.496Z,3.33
2018-07-28T14:07:32.428Z,2.85
2018-07-28T14:12:29.315Z,2.60
2018-07-28T14:17:26.052Z,2.77
2018-07-28T14:22:24.263Z,3.30
2018-07-28T14:27:21.274Z,3.08
2018-07-28T14:32:18.372Z,2.60
2018-07-28T14:37:15.117Z,2.95
2018-07-28T14:42:12.213Z,3.02
2018-07-28T14:47:08.951Z,3.05
2018-07-28T14:52:06.129Z,3.08
2018-07-28T14:57:02.929Z,3.47
2018-07-28T15:02:00.268Z,3.30
2018-07-28T15:06:56.968Z,3.60
2018-07-28T15:11:53.843Z,3.20
2018-07-28T15:16:50.568Z,3.37
2018-07-28T15:21:48.713Z,3.30
2018-07-28T15:26:45.686Z,3.40
2018-07-28T15:31:42.839Z,3.35
2018-07-28T15:36:39.588Z,4.55
2018-07-28T15:41:36.588Z,3.87
2018-07-28T15:46:33.329Z,3.95
2018-07-28T15:51:30.902Z,3.70
2018-07-28T15:56:28.878Z,4.10
2018-07-28T16:01:25.660Z,3.92
2018-07-28T16:06:22.397Z,3.90
2018-07-28T16:11:19.163Z,8.53
2018-07-28T16:16:16.319Z,4.20
2018-07-28T16:21:13.125Z,4.33
2018-07-28T16:26:10.059Z,4.50
2018-07-28T16:31:06.893Z,4.70
2018-07-28T16:36:03.874Z,4.78
2018-07-28T16:41:00.850Z,4.30
2018-07-28T16:45:57.799Z,4.40
2018-07-28T16:50:54.598Z,4.67
2018-07-28T16:55:51.573Z,5.25
2018-07-28T17:05:52.306Z,5.60
2018-07-28T17:10:49.024Z,7.37
2018-07-28T17:15:46.163Z,5.50
2018-07-28T17:20:42.953Z,5.17
2018-07-28T17:25:39.937Z,5.28
2018-07-28T17:30:36.695Z,5.42
2018-07-28T17:35:33.856Z,5.35
2018-07-28T17:40:31.500Z,4.90
2018-07-28T17:45:28.522Z,5.33
2018-07-28T17:50:25.275Z,4.60
2018-07-28T17:55:22.161Z,4.95
2018-07-28T18:00:18.946Z,5.50
2018-07-28T18:05:15.855Z,4.95
2018-07-28T18:10:12.660Z,4.83
2018-07-28T18:15:09.671Z,5.90
2018-07-28T18:20:06.734Z,6.20
2018-07-28T18:25:03.572Z,5.80
2018-07-28T18:30:00.557Z,6.45
2018-07-28T18:34:57.329Z,6.45
2018-07-28T18:39:54.591Z,6.97
2018-07-28T18:44:51.283Z,6.37
2018-07-28T18:49:48.211Z,6.33
2018-07-28T18:54:45.516Z,6.28
2018-07-28T18:59:42.728Z,6.78
2018-07-28T19:04:39.490Z,7.70
2018-07-28T19:09:42.189Z,7.00
2018-07-28T19:14:39.216Z,7.00
2018-07-28T19:19:36.115Z,6.92
2018-07-28T19:24:33.150Z,7.83
2018-07-28T19:29:35.881Z,7.25
2018-07-28T19:34:32.685Z,6.70
2018-07-28T19:39:30.172Z,6.95
2018-07-28T19:44:26.970Z,7.37
2018-07-28T19:49:23.916Z,7.47
2018-07-28T19:54:20.685Z,7.37
2018-07-28T19:59:17.659Z,7.62
2018-07-28T20:04:14.332Z,8.58
2018-07-28T20:09:11.363Z,10.40
2018-07-28T20:14:08.115Z,7.78
2018-07-28T20:19:05.483Z,12.85
2018-07-28T20:24:02.454Z,9.40
2018-07-28T20:28:59.701Z,8.95
2018-07-28T20:33:56.455Z,7.72
2018-07-28T20:38:53.453Z,8.20
2018-07-28T20:43:50.303Z,10.45
2018-07-28T20:48:47.360Z,6.90
2018-07-28T20:53:44.366Z,8.38
2018-07-28T20:58:41.312Z,7.83
2018-07-28T21:03:38.066Z,17.62
2018-07-28T21:08:35.221Z,11.90
2018-07-28T21:13:31.940Z,7.90
2018-07-28T21:18:29.046Z,7.72
2018-07-28T21:23:25.779Z,8.53
2018-07-28T21:28:22.762Z,7.95
2018-07-28T21:33:19.546Z,8.68
2018-07-28T21:38:16.588Z,35.70
2018-07-28T21:43:13.339Z,31.12
2018-07-28T21:48:10.418Z,9.53
2018-07-28T21:53:07.106Z,8.65
2018-07-28T21:58:04.226Z,11.33
2018-07-28T22:03:01.281Z,8.48
2018-07-28T22:07:58.253Z,8.63
2018-07-28T22:12:55.002Z,11.05
2018-07-28T22:17:51.776Z,8.73
2018-07-28T22:22:48.515Z,8.43
2018-07-28T22:27:45.582Z,9.23
2018-07-28T22:32:42.294Z,10.10
2018-07-28T22:37:39.339Z,9.15
2018-07-28T22:42:42.015Z,8.33
2018-07-28T22:47:38.707Z,9.55
2018-07-28T22:52:35.742Z,15.60
2018-07-28T22:57:32.495Z,9.35
2018-07-28T23:02:29.459Z,9.35
2018-07-28T23:07:26.194Z,21.52
2018-07-28T23:12:23.169Z,12.23
2018-07-28T23:17:20.128Z,14.10
2018-07-28T23:22:16.997Z,9.58
2018-07-28T23:27:13.957Z,8.85
2018-07-28T23:32:10.917Z,9.18
2018-07-28T23:37:08.059Z,9.23
2018-07-28T23:42:05.970Z,9.25
2018-07-28T23:47:02.796Z,10.38
2018-07-28T23:51:59.788Z,10.50
2018-07-28T23:56:56.471Z,10.13
